sensor_id;sensor_type;location;lat;lon;timestamp;P1;durP1;ratioP1;P2;durP2;ratioP2
58661;SDS011;44432;49.786;22.760;2022-07-25T00:02:02;5.30;;;3.50;;
58661;SDS011;44432;49.786;22.760;2022-07-25T00:04:33;4.90;;;3.40;;
58661;SDS011;44432;49.786;22.760;2022-07-25T00:07:04;8.20;;;3.20;;
58661;SDS011;44432;49.786;22.760;2022-07-25T00:09:35;4.60;;;3.20;;
58661;SDS011;44432;49.786;22.760;2022-07-25T00:12:05;6.60;;;3.60;;
58661;SDS011;44432;49.786;22.760;2022-07-25T00:14:36;7.70;;;3.20;;
58661;SDS011;44432;49.786;22.760;2022-07-25T00:17:07;4.90;;;3.20;;
58661;SDS011;44432;49.786;22.760;2022-07-25T00:19:37;7.10;;;3.40;;
58661;SDS011;44432;49.786;22.760;2022-07-25T00:22:08;5.90;;;3.20;;
58661;SDS011;44432;49.786;22.760;2022-07-25T00:24:38;5.90;;;3.80;;
58661;SDS011;44432;49.786;22.760;2022-07-25T00:27:09;4.10;;;3.10;;
58661;SDS011;44432;49.786;22.760;2022-07-25T00:29:40;5.60;;;3.40;;
58661;SDS011;44432;49.786;22.760;2022-07-25T00:32:10;5.70;;;3.40;;
58661;SDS011;44432;49.786;22.760;2022-07-25T00:34:41;7.70;;;4.10;;
58661;SDS011;44432;49.786;22.760;2022-07-25T00:37:11;6.10;;;3.90;;
58661;SDS011;44432;49.786;22.760;2022-07-25T00:39:42;9.20;;;3.80;;
58661;SDS011;44432;49.786;22.760;2022-07-25T00:42:12;8.70;;;3.10;;
58661;SDS011;44432;49.786;22.760;2022-07-25T00:44:43;5.80;;;4.10;;
58661;SDS011;44432;49.786;22.760;2022-07-25T00:47:14;7.60;;;4.90;;
58661;SDS011;44432;49.786;22.760;2022-07-25T00:49:44;13.50;;;11.60;;
58661;SDS011;44432;49.786;22.760;2022-07-25T00:52:15;8.20;;;5.10;;
58661;SDS011;44432;49.786;22.760;2022-07-25T00:54:45;5.00;;;3.60;;
58661;SDS011;44432;49.786;22.760;2022-07-25T00:57:16;6.50;;;3.80;;
58661;SDS011;44432;49.786;22.760;2022-07-25T00:59:47;5.20;;;3.90;;
58661;SDS011;44432;49.786;22.760;2022-07-25T01:02:17;5.30;;;3.50;;
58661;SDS011;44432;49.786;22.760;2022-07-25T01:04:48;7.00;;;3.80;;
58661;SDS011;44432;49.786;22.760;2022-07-25T01:07:19;4.40;;;3.20;;
58661;SDS011;44432;49.786;22.760;2022-07-25T01:09:49;7.60;;;3.70;;
58661;SDS011;44432;49.786;22.760;2022-07-25T01:12:20;5.90;;;3.40;;
58661;SDS011;44432;49.786;22.760;2022-07-25T01:14:51;6.80;;;4.00;;
58661;SDS011;44432;49.786;22.760;2022-07-25T01:17:21;5.00;;;3.60;;
58661;SDS011;44432;49.786;22.760;2022-07-25T01:19:52;4.70;;;3.40;;
58661;SDS011;44432;49.786;22.760;2022-07-25T01:22:22;4.80;;;3.50;;
58661;SDS011;44432;49.786;22.760;2022-07-25T01:24:53;6.10;;;3.80;;
58661;SDS011;44432;49.786;22.760;2022-07-25T01:27:23;4.70;;;3.50;;
58661;SDS011;44432;49.786;22.760;2022-07-25T01:29:54;4.60;;;3.40;;
58661;SDS011;44432;49.786;22.760;2022-07-25T01:32:25;8.60;;;3.80;;
58661;SDS011;44432;49.786;22.760;2022-07-25T01:34:55;6.40;;;4.00;;
58661;SDS011;44432;49.786;22.760;2022-07-25T01:37:26;6.40;;;3.70;;
58661;SDS011;44432;49.786;22.760;2022-07-25T01:39:56;7.50;;;4.40;;
58661;SDS011;44432;49.786;22.760;2022-07-25T01:42:27;6.60;;;4.40;;
58661;SDS011;44432;49.786;22.760;2022-07-25T01:44:58;8.10;;;4.90;;
58661;SDS011;44432;49.786;22.760;2022-07-25T01:47:29;7.50;;;4.40;;
58661;SDS011;44432;49.786;22.760;2022-07-25T01:50:00;6.00;;;4.80;;
58661;SDS011;44432;49.786;22.760;2022-07-25T01:52:31;7.00;;;4.90;;
58661;SDS011;44432;49.786;22.760;2022-07-25T01:55:01;14.40;;;7.20;;
58661;SDS011;44432;49.786;22.760;2022-07-25T01:57:32;6.70;;;5.20;;
58661;SDS011;44432;49.786;22.760;2022-07-25T02:00:04;7.20;;;5.20;;
58661;SDS011;44432;49.786;22.760;2022-07-25T02:02:38;8.70;;;4.70;;
58661;SDS011;44432;49.786;22.760;2022-07-25T02:05:10;9.70;;;6.10;;
58661;SDS011;44432;49.786;22.760;2022-07-25T02:07:42;12.20;;;5.00;;
58661;SDS011;44432;49.786;22.760;2022-07-25T02:10:12;7.70;;;4.80;;
58661;SDS011;44432;49.786;22.760;2022-07-25T02:12:43;7.70;;;5.30;;
58661;SDS011;44432;49.786;22.760;2022-07-25T02:15:14;9.10;;;5.20;;
58661;SDS011;44432;49.786;22.760;2022-07-25T02:17:45;6.00;;;4.80;;
58661;SDS011;44432;49.786;22.760;2022-07-25T02:20:15;9.10;;;5.20;;
58661;SDS011;44432;49.786;22.760;2022-07-25T02:22:46;7.50;;;4.70;;
58661;SDS011;44432;49.786;22.760;2022-07-25T02:25:16;5.40;;;4.30;;
58661;SDS011;44432;49.786;22.760;2022-07-25T02:27:47;6.30;;;4.40;;
58661;SDS011;44432;49.786;22.760;2022-07-25T02:30:17;9.10;;;4.50;;
58661;SDS011;44432;49.786;22.760;2022-07-25T02:32:48;8.20;;;4.80;;
58661;SDS011;44432;49.786;22.760;2022-07-25T02:35:19;6.80;;;3.90;;
58661;SDS011;44432;49.786;22.760;2022-07-25T02:37:50;5.90;;;4.10;;
58661;SDS011;44432;49.786;22.760;2022-07-25T02:40:20;5.40;;;4.40;;
58661;SDS011;44432;49.786;22.760;2022-07-25T02:42:51;7.50;;;4.20;;
58661;SDS011;44432;49.786;22.760;2022-07-25T02:45:21;6.00;;;4.50;;
58661;SDS011;44432;49.786;22.760;2022-07-25T02:47:52;6.50;;;4.30;;
58661;SDS011;44432;49.786;22.760;2022-07-25T02:50:22;6.80;;;4.90;;
58661;SDS011;44432;49.786;22.760;2022-07-25T02:52:53;8.20;;;4.70;;
58661;SDS011;44432;49.786;22.760;2022-07-25T02:55:24;5.80;;;4.50;;
58661;SDS011;44432;49.786;22.760;2022-07-25T02:57:54;10.10;;;4.80;;
58661;SDS011;44432;49.786;22.760;2022-07-25T03:00:25;11.00;;;4.70;;
58661;SDS011;44432;49.786;22.760;2022-07-25T03:02:56;10.40;;;5.20;;
58661;SDS011;44432;49.786;22.760;2022-07-25T03:05:27;5.10;;;4.30;;
58661;SDS011;44432;49.786;22.760;2022-07-25T03:07:57;6.50;;;4.70;;
58661;SDS011;44432;49.786;22.760;2022-07-25T03:10:28;5.90;;;4.20;;
58661;SDS011;44432;49.786;22.760;2022-07-25T03:12:59;6.10;;;4.10;;
58661;SDS011;44432;49.786;22.760;2022-07-25T03:15:29;8.20;;;3.70;;
58661;SDS011;44432;49.786;22.760;2022-07-25T03:18:00;6.20;;;4.40;;
58661;SDS011;44432;49.786;22.760;2022-07-25T03:20:31;6.20;;;3.80;;
58661;SDS011;44432;49.786;22.760;2022-07-25T03:23:01;5.40;;;4.10;;
58661;SDS011;44432;49.786;22.760;2022-07-25T03:25:32;8.80;;;4.30;;
58661;SDS011;44432;49.786;22.760;2022-07-25T03:28:02;10.20;;;8.40;;
58661;SDS011;44432;49.786;22.760;2022-07-25T03:30:33;6.90;;;4.20;;
58661;SDS011;44432;49.786;22.760;2022-07-25T03:33:04;10.00;;;4.10;;
58661;SDS011;44432;49.786;22.760;2022-07-25T03:35:34;7.50;;;4.20;;
58661;SDS011;44432;49.786;22.760;2022-07-25T03:38:06;5.40;;;4.60;;
58661;SDS011;44432;49.786;22.760;2022-07-25T03:40:37;6.50;;;4.60;;
58661;SDS011;44432;49.786;22.760;2022-07-25T03:43:08;12.00;;;5.30;;
58661;SDS011;44432;49.786;22.760;2022-07-25T03:45:38;7.30;;;5.60;;
58661;SDS011;44432;49.786;22.760;2022-07-25T03:48:09;6.40;;;4.40;;
58661;SDS011;44432;49.786;22.760;2022-07-25T03:50:40;7.20;;;4.70;;
58661;SDS011;44432;49.786;22.760;2022-07-25T03:53:10;7.80;;;4.20;;
58661;SDS011;44432;49.786;22.760;2022-07-25T03:55:41;5.80;;;4.60;;
58661;SDS011;44432;49.786;22.760;2022-07-25T03:58:11;6.80;;;4.50;;
58661;SDS011;44432;49.786;22.760;2022-07-25T04:00:42;4.80;;;4.10;;
58661;SDS011;44432;49.786;22.760;2022-07-25T04:03:14;6.10;;;4.20;;
58661;SDS011;44432;49.786;22.760;2022-07-25T04:05:45;6.60;;;4.40;;
58661;SDS011;44432;49.786;22.760;2022-07-25T04:08:15;8.00;;;4.60;;
58661;SDS011;44432;49.786;22.760;2022-07-25T04:10:46;6.70;;;4.10;;
58661;SDS011;44432;49.786;22.760;2022-07-25T04:13:16;9.70;;;5.10;;
58661;SDS011;44432;49.786;22.760;2022-07-25T04:15:47;7.20;;;4.70;;
58661;SDS011;44432;49.786;22.760;2022-07-25T04:18:17;9.10;;;7.00;;
58661;SDS011;44432;49.786;22.760;2022-07-25T04:20:48;10.00;;;7.00;;
58661;SDS011;44432;49.786;22.760;2022-07-25T04:23:18;4.90;;;4.00;;
58661;SDS011;44432;49.786;22.760;2022-07-25T04:25:49;7.80;;;4.20;;
58661;SDS011;44432;49.786;22.760;2022-07-25T04:28:19;7.40;;;4.50;;
58661;SDS011;44432;49.786;22.760;2022-07-25T04:30:50;8.00;;;4.10;;
58661;SDS011;44432;49.786;22.760;2022-07-25T04:33:21;8.30;;;4.60;;
58661;SDS011;44432;49.786;22.760;2022-07-25T04:35:52;6.40;;;4.10;;
58661;SDS011;44432;49.786;22.760;2022-07-25T04:38:23;7.30;;;5.30;;
58661;SDS011;44432;49.786;22.760;2022-07-25T04:40:53;7.20;;;4.90;;
58661;SDS011;44432;49.786;22.760;2022-07-25T04:43:24;6.70;;;4.30;;
58661;SDS011;44432;49.786;22.760;2022-07-25T04:45:55;7.70;;;4.50;;
58661;SDS011;44432;49.786;22.760;2022-07-25T04:48:26;8.60;;;4.40;;
58661;SDS011;44432;49.786;22.760;2022-07-25T04:50:56;9.60;;;5.90;;
58661;SDS011;44432;49.786;22.760;2022-07-25T04:53:27;7.40;;;6.00;;
58661;SDS011;44432;49.786;22.760;2022-07-25T04:55:58;8.30;;;5.50;;
58661;SDS011;44432;49.786;22.760;2022-07-25T04:58:29;6.80;;;4.90;;
58661;SDS011;44432;49.786;22.760;2022-07-25T05:01:00;7.50;;;4.90;;
58661;SDS011;44432;49.786;22.760;2022-07-25T05:03:31;6.60;;;5.10;;
58661;SDS011;44432;49.786;22.760;2022-07-25T05:06:01;6.50;;;5.30;;
58661;SDS011;44432;49.786;22.760;2022-07-25T05:08:32;6.10;;;4.80;;
58661;SDS011;44432;49.786;22.760;2022-07-25T05:11:03;6.80;;;4.10;;
58661;SDS011;44432;49.786;22.760;2022-07-25T05:13:34;7.10;;;4.20;;
58661;SDS011;44432;49.786;22.760;2022-07-25T05:16:05;4.50;;;3.90;;
58661;SDS011;44432;49.786;22.760;2022-07-25T05:18:36;4.80;;;4.20;;
58661;SDS011;44432;49.786;22.760;2022-07-25T05:21:09;7.70;;;4.30;;
58661;SDS011;44432;49.786;22.760;2022-07-25T05:23:40;5.90;;;4.50;;
58661;SDS011;44432;49.786;22.760;2022-07-25T05:26:11;5.70;;;4.10;;
58661;SDS011;44432;49.786;22.760;2022-07-25T05:28:42;6.50;;;4.20;;
58661;SDS011;44432;49.786;22.760;2022-07-25T05:31:12;7.60;;;4.70;;
58661;SDS011;44432;49.786;22.760;2022-07-25T05:33:43;8.50;;;4.20;;
58661;SDS011;44432;49.786;22.760;2022-07-25T05:36:14;7.80;;;4.20;;
58661;SDS011;44432;49.786;22.760;2022-07-25T05:38:45;7.90;;;4.50;;
58661;SDS011;44432;49.786;22.760;2022-07-25T05:41:15;6.20;;;4.10;;
58661;SDS011;44432;49.786;22.760;2022-07-25T05:43:46;9.10;;;4.70;;
58661;SDS011;44432;49.786;22.760;2022-07-25T05:46:16;5.90;;;4.40;;
58661;SDS011;44432;49.786;22.760;2022-07-25T05:48:47;6.00;;;5.20;;
58661;SDS011;44432;49.786;22.760;2022-07-25T05:51:17;11.50;;;6.60;;
58661;SDS011;44432;49.786;22.760;2022-07-25T05:53:48;8.10;;;4.60;;
58661;SDS011;44432;49.786;22.760;2022-07-25T05:56:18;7.30;;;4.90;;
58661;SDS011;44432;49.786;22.760;2022-07-25T05:58:49;6.50;;;4.30;;
58661;SDS011;44432;49.786;22.760;2022-07-25T06:01:20;6.80;;;4.30;;
58661;SDS011;44432;49.786;22.760;2022-07-25T06:03:51;7.70;;;3.70;;
58661;SDS011;44432;49.786;22.760;2022-07-25T06:06:21;6.90;;;3.70;;
58661;SDS011;44432;49.786;22.760;2022-07-25T06:08:52;6.20;;;3.70;;
58661;SDS011;44432;49.786;22.760;2022-07-25T06:11:23;5.40;;;4.10;;
58661;SDS011;44432;49.786;22.760;2022-07-25T06:13:55;9.20;;;3.70;;
58661;SDS011;44432;49.786;22.760;2022-07-25T06:16:26;5.50;;;3.50;;
58661;SDS011;44432;49.786;22.760;2022-07-25T06:18:56;7.50;;;3.80;;
58661;SDS011;44432;49.786;22.760;2022-07-25T06:21:27;6.10;;;4.00;;
58661;SDS011;44432;49.786;22.760;2022-07-25T06:23:58;6.60;;;3.90;;
58661;SDS011;44432;49.786;22.760;2022-07-25T06:26:28;6.60;;;4.00;;
58661;SDS011;44432;49.786;22.760;2022-07-25T06:28:59;7.00;;;3.60;;
58661;SDS011;44432;49.786;22.760;2022-07-25T06:31:29;5.80;;;3.40;;
58661;SDS011;44432;49.786;22.760;2022-07-25T06:34:00;4.60;;;3.50;;
58661;SDS011;44432;49.786;22.760;2022-07-25T06:36:31;4.70;;;3.70;;
58661;SDS011;44432;49.786;22.760;2022-07-25T06:39:01;5.40;;;3.70;;
58661;SDS011;44432;49.786;22.760;2022-07-25T06:41:32;6.00;;;4.10;;
58661;SDS011;44432;49.786;22.760;2022-07-25T06:44:04;7.00;;;3.80;;
58661;SDS011;44432;49.786;22.760;2022-07-25T06:46:34;6.80;;;4.90;;
58661;SDS011;44432;49.786;22.760;2022-07-25T06:49:05;9.70;;;5.90;;
58661;SDS011;44432;49.786;22.760;2022-07-25T06:51:36;4.90;;;4.00;;
58661;SDS011;44432;49.786;22.760;2022-07-25T06:54:06;7.70;;;4.50;;
58661;SDS011;44432;49.786;22.760;2022-07-25T06:56:36;6.90;;;4.00;;
58661;SDS011;44432;49.786;22.760;2022-07-25T06:59:07;12.80;;;7.20;;
58661;SDS011;44432;49.786;22.760;2022-07-25T07:01:38;9.50;;;5.20;;
58661;SDS011;44432;49.786;22.760;2022-07-25T07:04:08;6.60;;;3.90;;
58661;SDS011;44432;49.786;22.760;2022-07-25T07:06:39;7.60;;;5.30;;
58661;SDS011;44432;49.786;22.760;2022-07-25T07:09:10;7.40;;;4.50;;
58661;SDS011;44432;49.786;22.760;2022-07-25T07:11:41;9.20;;;4.30;;
58661;SDS011;44432;49.786;22.760;2022-07-25T07:14:11;8.20;;;3.60;;
58661;SDS011;44432;49.786;22.760;2022-07-25T07:16:42;5.20;;;4.00;;
58661;SDS011;44432;49.786;22.760;2022-07-25T07:19:12;4.60;;;3.60;;
58661;SDS011;44432;49.786;22.760;2022-07-25T07:21:43;4.10;;;2.90;;
58661;SDS011;44432;49.786;22.760;2022-07-25T07:24:14;4.70;;;2.80;;
58661;SDS011;44432;49.786;22.760;2022-07-25T07:26:44;5.90;;;2.80;;
58661;SDS011;44432;49.786;22.760;2022-07-25T07:29:15;6.30;;;3.00;;
58661;SDS011;44432;49.786;22.760;2022-07-25T07:31:45;8.80;;;4.10;;
58661;SDS011;44432;49.786;22.760;2022-07-25T07:34:16;6.60;;;3.10;;
58661;SDS011;44432;49.786;22.760;2022-07-25T07:36:47;4.50;;;3.30;;
58661;SDS011;44432;49.786;22.760;2022-07-25T07:39:17;3.70;;;2.90;;
58661;SDS011;44432;49.786;22.760;2022-07-25T07:41:48;3.90;;;2.90;;
58661;SDS011;44432;49.786;22.760;2022-07-25T07:44:18;7.50;;;3.20;;
58661;SDS011;44432;49.786;22.760;2022-07-25T07:46:49;6.20;;;3.10;;
58661;SDS011;44432;49.786;22.760;2022-07-25T07:49:19;5.40;;;3.10;;
58661;SDS011;44432;49.786;22.760;2022-07-25T07:51:50;5.00;;;3.10;;
58661;SDS011;44432;49.786;22.760;2022-07-25T07:54:21;4.70;;;3.00;;
58661;SDS011;44432;49.786;22.760;2022-07-25T07:57:09;5.50;;;3.20;;
58661;SDS011;44432;49.786;22.760;2022-07-25T07:59:39;3.70;;;3.20;;
58661;SDS011;44432;49.786;22.760;2022-07-25T08:02:10;4.50;;;3.70;;
58661;SDS011;44432;49.786;22.760;2022-07-25T08:04:41;5.10;;;3.40;;
58661;SDS011;44432;49.786;22.760;2022-07-25T08:07:11;3.70;;;3.20;;
58661;SDS011;44432;49.786;22.760;2022-07-25T08:09:42;7.00;;;3.40;;
58661;SDS011;44432;49.786;22.760;2022-07-25T08:12:12;14.90;;;5.20;;
58661;SDS011;44432;49.786;22.760;2022-07-25T08:14:43;6.10;;;3.20;;
58661;SDS011;44432;49.786;22.760;2022-07-25T08:17:14;6.70;;;3.60;;
58661;SDS011;44432;49.786;22.760;2022-07-25T08:19:44;8.70;;;3.80;;
58661;SDS011;44432;49.786;22.760;2022-07-25T08:22:15;4.10;;;3.20;;
58661;SDS011;44432;49.786;22.760;2022-07-25T08:24:45;11.80;;;5.30;;
58661;SDS011;44432;49.786;22.760;2022-07-25T08:27:16;5.60;;;3.80;;
58661;SDS011;44432;49.786;22.760;2022-07-25T08:29:46;4.20;;;3.10;;
58661;SDS011;44432;49.786;22.760;2022-07-25T08:32:17;5.80;;;3.60;;
58661;SDS011;44432;49.786;22.760;2022-07-25T08:34:48;8.20;;;4.20;;
58661;SDS011;44432;49.786;22.760;2022-07-25T08:37:18;4.20;;;3.40;;
58661;SDS011;44432;49.786;22.760;2022-07-25T08:39:50;4.90;;;3.60;;
58661;SDS011;44432;49.786;22.760;2022-07-25T08:42:20;3.80;;;3.20;;
58661;SDS011;44432;49.786;22.760;2022-07-25T08:44:54;5.50;;;3.80;;
58661;SDS011;44432;49.786;22.760;2022-07-25T08:47:27;4.30;;;3.70;;
58661;SDS011;44432;49.786;22.760;2022-07-25T08:49:58;4.30;;;3.60;;
58661;SDS011;44432;49.786;22.760;2022-07-25T08:52:29;5.60;;;4.00;;
58661;SDS011;44432;49.786;22.760;2022-07-25T08:55:03;6.10;;;4.50;;
58661;SDS011;44432;49.786;22.760;2022-07-25T08:57:36;5.80;;;3.40;;
58661;SDS011;44432;49.786;22.760;2022-07-25T09:00:13;3.90;;;3.10;;
58661;SDS011;44432;49.786;22.760;2022-07-25T09:02:51;4.00;;;3.60;;
58661;SDS011;44432;49.786;22.760;2022-07-25T09:05:23;6.20;;;4.10;;
58661;SDS011;44432;49.786;22.760;2022-07-25T09:07:55;6.10;;;4.80;;
58661;SDS011;44432;49.786;22.760;2022-07-25T09:10:33;6.30;;;3.00;;
58661;SDS011;44432;49.786;22.760;2022-07-25T09:13:06;4.90;;;3.40;;
58661;SDS011;44432;49.786;22.760;2022-07-25T09:15:42;4.70;;;3.40;;
58661;SDS011;44432;49.786;22.760;2022-07-25T09:18:15;4.90;;;3.60;;
58661;SDS011;44432;49.786;22.760;2022-07-25T09:20:47;5.30;;;3.60;;
58661;SDS011;44432;49.786;22.760;2022-07-25T09:23:28;5.10;;;3.00;;
58661;SDS011;44432;49.786;22.760;2022-07-25T09:26:03;3.60;;;2.80;;
58661;SDS011;44432;49.786;22.760;2022-07-25T09:28:40;4.30;;;2.90;;
58661;SDS011;44432;49.786;22.760;2022-07-25T09:31:12;4.10;;;3.10;;
58661;SDS011;44432;49.786;22.760;2022-07-25T09:33:47;4.20;;;2.80;;
58661;SDS011;44432;49.786;22.760;2022-07-25T09:36:22;3.70;;;3.00;;
58661;SDS011;44432;49.786;22.760;2022-07-25T09:38:53;4.80;;;3.50;;
58661;SDS011;44432;49.786;22.760;2022-07-25T09:41:33;6.20;;;3.10;;
58661;SDS011;44432;49.786;22.760;2022-07-25T09:44:13;4.90;;;2.90;;
58661;SDS011;44432;49.786;22.760;2022-07-25T09:46:45;4.00;;;2.50;;
58661;SDS011;44432;49.786;22.760;2022-07-25T09:49:15;3.70;;;2.90;;
58661;SDS011;44432;49.786;22.760;2022-07-25T09:51:46;4.30;;;2.80;;
58661;SDS011;44432;49.786;22.760;2022-07-25T09:54:17;6.50;;;2.90;;
58661;SDS011;44432;49.786;22.760;2022-07-25T09:56:50;4.70;;;2.70;;
58661;SDS011;44432;49.786;22.760;2022-07-25T09:59:21;3.10;;;2.70;;
58661;SDS011;44432;49.786;22.760;2022-07-25T10:01:53;3.50;;;2.60;;
58661;SDS011;44432;49.786;22.760;2022-07-25T10:04:34;3.80;;;2.80;;
58661;SDS011;44432;49.786;22.760;2022-07-25T10:07:13;4.90;;;3.30;;
58661;SDS011;44432;49.786;22.760;2022-07-25T10:09:47;8.00;;;2.90;;
58661;SDS011;44432;49.786;22.760;2022-07-25T10:12:20;3.70;;;2.90;;
58661;SDS011;44432;49.786;22.760;2022-07-25T10:15:05;4.20;;;2.40;;
58661;SDS011;44432;49.786;22.760;2022-07-25T10:17:38;4.30;;;3.00;;
58661;SDS011;44432;49.786;22.760;2022-07-25T10:20:09;6.20;;;3.50;;
58661;SDS011;44432;49.786;22.760;2022-07-25T10:22:41;5.20;;;2.90;;
58661;SDS011;44432;49.786;22.760;2022-07-25T10:25:14;3.40;;;3.00;;
58661;SDS011;44432;49.786;22.760;2022-07-25T10:27:47;6.60;;;2.80;;
58661;SDS011;44432;49.786;22.760;2022-07-25T10:30:25;4.50;;;2.70;;
58661;SDS011;44432;49.786;22.760;2022-07-25T10:33:02;4.30;;;3.20;;
58661;SDS011;44432;49.786;22.760;2022-07-25T10:35:40;3.60;;;3.00;;
58661;SDS011;44432;49.786;22.760;2022-07-25T10:38:11;9.00;;;3.40;;
58661;SDS011;44432;49.786;22.760;2022-07-25T10:40:42;8.40;;;3.10;;
58661;SDS011;44432;49.786;22.760;2022-07-25T10:43:20;7.80;;;3.20;;
58661;SDS011;44432;49.786;22.760;2022-07-25T10:45:57;5.90;;;3.00;;
58661;SDS011;44432;49.786;22.760;2022-07-25T10:48:28;4.60;;;2.90;;
58661;SDS011;44432;49.786;22.760;2022-07-25T10:51:01;4.00;;;2.70;;
58661;SDS011;44432;49.786;22.760;2022-07-25T10:53:34;4.00;;;2.60;;
58661;SDS011;44432;49.786;22.760;2022-07-25T10:56:07;4.70;;;2.80;;
58661;SDS011;44432;49.786;22.760;2022-07-25T10:58:45;5.30;;;2.90;;
58661;SDS011;44432;49.786;22.760;2022-07-25T11:01:21;4.80;;;2.90;;
58661;SDS011;44432;49.786;22.760;2022-07-25T11:03:54;6.30;;;3.00;;
58661;SDS011;44432;49.786;22.760;2022-07-25T11:06:30;7.40;;;2.70;;
58661;SDS011;44432;49.786;22.760;2022-07-25T11:09:02;5.20;;;2.70;;
58661;SDS011;44432;49.786;22.760;2022-07-25T11:11:42;5.10;;;2.60;;
58661;SDS011;44432;49.786;22.760;2022-07-25T11:14:18;5.50;;;3.50;;
58661;SDS011;44432;49.786;22.760;2022-07-25T11:16:50;4.70;;;2.90;;
58661;SDS011;44432;49.786;22.760;2022-07-25T11:19:22;6.10;;;2.90;;
58661;SDS011;44432;49.786;22.760;2022-07-25T11:21:55;7.50;;;2.90;;
58661;SDS011;44432;49.786;22.760;2022-07-25T11:24:34;5.40;;;2.90;;
58661;SDS011;44432;49.786;22.760;2022-07-25T11:27:07;4.70;;;2.50;;
58661;SDS011;44432;49.786;22.760;2022-07-25T11:29:39;4.70;;;2.60;;
58661;SDS011;44432;49.786;22.760;2022-07-25T11:32:10;4.50;;;2.80;;
58661;SDS011;44432;49.786;22.760;2022-07-25T11:34:42;6.00;;;2.80;;
58661;SDS011;44432;49.786;22.760;2022-07-25T11:37:15;3.90;;;2.50;;
58661;SDS011;44432;49.786;22.760;2022-07-25T11:39:46;4.70;;;2.60;;
58661;SDS011;44432;49.786;22.760;2022-07-25T11:42:18;6.40;;;2.70;;
58661;SDS011;44432;49.786;22.760;2022-07-25T11:44:50;4.30;;;2.50;;
58661;SDS011;44432;49.786;22.760;2022-07-25T11:47:22;5.40;;;2.40;;
58661;SDS011;44432;49.786;22.760;2022-07-25T11:49:56;3.60;;;2.60;;
58661;SDS011;44432;49.786;22.760;2022-07-25T11:52:28;2.90;;;2.30;;
58661;SDS011;44432;49.786;22.760;2022-07-25T11:55:01;4.60;;;2.10;;
58661;SDS011;44432;49.786;22.760;2022-07-25T12:00:04;4.20;;;2.50;;
58661;SDS011;44432;49.786;22.760;2022-07-25T12:02:38;3.40;;;2.40;;
58661;SDS011;44432;49.786;22.760;2022-07-25T12:05:11;4.90;;;2.40;;
58661;SDS011;44432;49.786;22.760;2022-07-25T12:07:44;3.90;;;2.60;;
58661;SDS011;44432;49.786;22.760;2022-07-25T12:10:20;4.20;;;2.60;;
58661;SDS011;44432;49.786;22.760;2022-07-25T12:12:59;3.00;;;2.60;;
58661;SDS011;44432;49.786;22.760;2022-07-25T12:15:31;5.40;;;2.90;;
58661;SDS011;44432;49.786;22.760;2022-07-25T12:18:03;6.00;;;2.50;;
58661;SDS011;44432;49.786;22.760;2022-07-25T12:20:38;4.80;;;2.40;;
58661;SDS011;44432;49.786;22.760;2022-07-25T12:23:10;3.20;;;2.30;;
58661;SDS011;44432;49.786;22.760;2022-07-25T12:25:42;3.40;;;2.60;;
58661;SDS011;44432;49.786;22.760;2022-07-25T12:28:13;3.30;;;2.20;;
58661;SDS011;44432;49.786;22.760;2022-07-25T12:30:44;2.80;;;2.10;;
58661;SDS011;44432;49.786;22.760;2022-07-25T12:33:16;3.80;;;2.10;;
58661;SDS011;44432;49.786;22.760;2022-07-25T12:35:46;4.40;;;2.20;;
58661;SDS011;44432;49.786;22.760;2022-07-25T12:38:17;3.80;;;2.30;;
58661;SDS011;44432;49.786;22.760;2022-07-25T12:40:48;3.50;;;2.50;;
58661;SDS011;44432;49.786;22.760;2022-07-25T12:43:18;3.30;;;2.40;;
58661;SDS011;44432;49.786;22.760;2022-07-25T12:45:49;3.40;;;2.50;;
58661;SDS011;44432;49.786;22.760;2022-07-25T12:48:20;4.20;;;2.50;;
58661;SDS011;44432;49.786;22.760;2022-07-25T12:50:50;7.10;;;2.90;;
58661;SDS011;44432;49.786;22.760;2022-07-25T12:53:21;2.50;;;2.00;;
58661;SDS011;44432;49.786;22.760;2022-07-25T12:55:52;5.10;;;2.40;;
58661;SDS011;44432;49.786;22.760;2022-07-25T12:58:22;3.90;;;2.20;;
58661;SDS011;44432;49.786;22.760;2022-07-25T13:00:53;5.00;;;2.10;;
58661;SDS011;44432;49.786;22.760;2022-07-25T13:03:23;2.90;;;2.10;;
58661;SDS011;44432;49.786;22.760;2022-07-25T13:05:54;2.80;;;2.20;;
58661;SDS011;44432;49.786;22.760;2022-07-25T13:08:25;4.00;;;3.10;;
58661;SDS011;44432;49.786;22.760;2022-07-25T13:10:55;4.20;;;2.20;;
58661;SDS011;44432;49.786;22.760;2022-07-25T13:13:26;4.00;;;2.20;;
58661;SDS011;44432;49.786;22.760;2022-07-25T13:15:57;2.80;;;2.10;;
58661;SDS011;44432;49.786;22.760;2022-07-25T13:18:27;4.00;;;2.40;;
58661;SDS011;44432;49.786;22.760;2022-07-25T13:20:59;3.80;;;2.30;;
58661;SDS011;44432;49.786;22.760;2022-07-25T13:23:30;2.60;;;2.10;;
58661;SDS011;44432;49.786;22.760;2022-07-25T13:26:00;3.90;;;2.10;;
58661;SDS011;44432;49.786;22.760;2022-07-25T13:28:31;2.60;;;2.20;;
58661;SDS011;44432;49.786;22.760;2022-07-25T13:31:02;3.90;;;2.50;;
58661;SDS011;44432;49.786;22.760;2022-07-25T13:33:33;3.90;;;2.40;;
58661;SDS011;44432;49.786;22.760;2022-07-25T13:36:04;2.30;;;1.90;;
58661;SDS011;44432;49.786;22.760;2022-07-25T13:38:35;3.40;;;2.20;;
58661;SDS011;44432;49.786;22.760;2022-07-25T13:41:08;3.50;;;2.40;;
58661;SDS011;44432;49.786;22.760;2022-07-25T13:43:38;5.50;;;2.20;;
58661;SDS011;44432;49.786;22.760;2022-07-25T13:46:09;3.40;;;2.50;;
58661;SDS011;44432;49.786;22.760;2022-07-25T13:48:41;3.10;;;2.10;;
58661;SDS011;44432;49.786;22.760;2022-07-25T13:51:12;3.70;;;2.10;;
58661;SDS011;44432;49.786;22.760;2022-07-25T13:53:43;4.70;;;2.50;;
58661;SDS011;44432;49.786;22.760;2022-07-25T13:56:14;3.20;;;2.50;;
58661;SDS011;44432;49.786;22.760;2022-07-25T13:58:44;2.60;;;2.10;;
58661;SDS011;44432;49.786;22.760;2022-07-25T14:01:15;5.00;;;2.30;;
58661;SDS011;44432;49.786;22.760;2022-07-25T14:03:46;3.80;;;2.70;;
58661;SDS011;44432;49.786;22.760;2022-07-25T14:06:16;2.90;;;2.30;;
58661;SDS011;44432;49.786;22.760;2022-07-25T14:08:47;5.40;;;2.40;;
58661;SDS011;44432;49.786;22.760;2022-07-25T14:11:18;3.80;;;2.20;;
58661;SDS011;44432;49.786;22.760;2022-07-25T14:13:49;3.10;;;2.30;;
58661;SDS011;44432;49.786;22.760;2022-07-25T14:16:19;3.40;;;2.20;;
58661;SDS011;44432;49.786;22.760;2022-07-25T14:18:50;3.80;;;2.60;;
58661;SDS011;44432;49.786;22.760;2022-07-25T14:21:21;3.50;;;2.70;;
58661;SDS011;44432;49.786;22.760;2022-07-25T14:23:52;6.90;;;3.00;;
58661;SDS011;44432;49.786;22.760;2022-07-25T14:26:22;3.70;;;2.00;;
58661;SDS011;44432;49.786;22.760;2022-07-25T14:28:55;5.70;;;2.60;;
58661;SDS011;44432;49.786;22.760;2022-07-25T14:31:26;3.80;;;2.50;;
58661;SDS011;44432;49.786;22.760;2022-07-25T14:33:56;3.10;;;2.20;;
58661;SDS011;44432;49.786;22.760;2022-07-25T14:36:27;4.30;;;2.30;;
58661;SDS011;44432;49.786;22.760;2022-07-25T14:38:57;3.40;;;2.30;;
58661;SDS011;44432;49.786;22.760;2022-07-25T14:41:29;4.10;;;2.40;;
58661;SDS011;44432;49.786;22.760;2022-07-25T14:43:59;4.10;;;1.90;;
58661;SDS011;44432;49.786;22.760;2022-07-25T14:46:30;3.30;;;2.00;;
58661;SDS011;44432;49.786;22.760;2022-07-25T14:49:01;3.10;;;1.90;;
58661;SDS011;44432;49.786;22.760;2022-07-25T14:51:31;1.90;;;1.60;;
58661;SDS011;44432;49.786;22.760;2022-07-25T14:54:02;6.00;;;1.80;;
58661;SDS011;44432;49.786;22.760;2022-07-25T14:56:33;2.00;;;1.60;;
58661;SDS011;44432;49.786;22.760;2022-07-25T14:59:04;2.20;;;1.50;;
58661;SDS011;44432;49.786;22.760;2022-07-25T15:01:36;4.70;;;1.80;;